Language selection

Weather shortcuts

Strait of Georgia - south of Nanaimo: Past 24 Hour Conditions

 

English Bay - 46304

04:00 PM PST 03 March 2024Buoy position: 49.3N 123.36W
Disclaimer

This table is a summary of hourly weather conditions for the past 24 hours.
Please note that these observations might not always be representative of weather conditions over their associated marine area.

Date / Time
(PST)
Wind(knots) Wave height(m) Wave period(s) Pressure(kPa) Air tempC) Water tempC)
03 March 2024
16:00 NE 12 gusts 18 0.31 2.4 100.4 4 7
15:00 NE 12 gusts 18 0.36 2.6 100.4 4 7
14:00 E 13 gusts 16 0.40 2.7 100.4 5 7
13:00 E 15 gusts 18 0.43 2.7 100.4 4 7
12:00 E 15 gusts 17 0.37 2.6 100.4 4 7
11:00 E 11 gusts 15 0.36 2.6 100.4 4 7
10:00 E 17 gusts 19 0.43 2.5 100.3 4 7
9:00 E 13 gusts 20 0.47 2.6 100.3 5 7
8:00 ENE 16 gusts 18 0.51 2.7 100.2 4 7
7:00 ENE 17 gusts 21 0.51 2.7 100.2 5 7
6:00 E 17 gusts 22 0.40 2.4 100.2 5 7
5:00 ENE 15 gusts 18 0.41 2.4 100.1 5 7
4:00 ENE 16 gusts 19 0.47 2.5 100.1 4 7
3:00 E 19 gusts 23 0.55 2.7 100.1 4 7
2:00 E 19 gusts 24 0.53 2.7 100.1 5 7
1:00 E 19 gusts 23 0.49 2.6 100.1 4 7
0:00 E 19 gusts 23 0.47 2.6 100.1 5 7
02 March 2024
23:00 E 19 gusts 24 0.47 2.6 100.0 5 7
22:00 E 18 gusts 23 0.43 2.4 100.0 5 7
21:00 E 15 gusts 17 0.37 2.6 100.0 5 7
20:00 E 15 gusts 18 0.48 2.7 100.0 4 7
19:00 E 17 gusts 19 0.54 2.8 99.9 4 7
18:00 ESE 16 gusts 19 0.56 3.0 99.9 5 7
17:00 ESE 19 gusts 24 0.44 2.9 99.8 6 7
16:00 SE 13 gusts 15 0.38 2.8 99.8 7 7

Zoom-in to make a selection

Map of Pacific - South Coast marine weather areas South Nomad - 46036 Sentry Shoal - 46131 South Brooks - 46132 Halibut Bank - 46146 South Moresby - 46147 South Hecate Strait - 46185 West Sea Otter - 46204 La Perouse Bank - 46206 East Dellwood - 46207 Georgia Strait - 46303 English Bay – 46304 Discovery Island Esquimalt Harbour Kelp Reefs Malahat Race Rocks Lightstation Saturna Island Sheringham Point University of Victoria Victoria Gonzales Victoria Int'l Airport Ballenas Islands Campbell River Airport Comox Airport Entrance Island Fanny Island Nanaimo Airport Port Hardy Airport Sisters Islets Estevan Point Port Alberni Sartine Island Solander Island Tofino Airport Grief Point Howe Sound - Pam Rocks Powell River Airport Sechelt Squamish Airport Cape St.James Bella Bella Airport Bella Coola Airport Cathedral Point Herbert Island Point Atkinson Sand Heads Lightstation Tsawwassen Ferry Terminal Vancouver Int'l Airport Vancouver Harbour West Vancouver
Legend:
buoy Buoy
land station Land Station

Pacific - South Coast Area

Another Region

Date modified: